sensor_id;sensor_type;location;lat;lon;timestamp;P1;durP1;ratioP1;P2;durP2;ratioP2
21305;SDS011;10812;51.838;5.838;2023-09-07T00:01:54;6.20;;;3.95;;
21305;SDS011;10812;51.838;5.838;2023-09-07T00:04:22;5.13;;;4.28;;
21305;SDS011;10812;51.838;5.838;2023-09-07T00:06:50;7.18;;;4.72;;
21305;SDS011;10812;51.838;5.838;2023-09-07T00:09:20;6.65;;;4.35;;
21305;SDS011;10812;51.838;5.838;2023-09-07T00:11:49;5.53;;;4.45;;
21305;SDS011;10812;51.838;5.838;2023-09-07T00:14:17;5.75;;;4.60;;
21305;SDS011;10812;51.838;5.838;2023-09-07T00:16:45;5.55;;;4.65;;
21305;SDS011;10812;51.838;5.838;2023-09-07T00:19:13;7.35;;;4.85;;
21305;SDS011;10812;51.838;5.838;2023-09-07T00:21:41;7.50;;;5.18;;
21305;SDS011;10812;51.838;5.838;2023-09-07T00:24:09;6.50;;;5.13;;
21305;SDS011;10812;51.838;5.838;2023-09-07T00:26:39;6.70;;;4.72;;
21305;SDS011;10812;51.838;5.838;2023-09-07T00:29:07;7.30;;;5.65;;
21305;SDS011;10812;51.838;5.838;2023-09-07T00:31:35;9.20;;;5.47;;
21305;SDS011;10812;51.838;5.838;2023-09-07T00:34:03;4.75;;;4.20;;
21305;SDS011;10812;51.838;5.838;2023-09-07T00:36:31;7.60;;;4.88;;
21305;SDS011;10812;51.838;5.838;2023-09-07T00:38:59;6.40;;;4.88;;
21305;SDS011;10812;51.838;5.838;2023-09-07T00:41:28;6.38;;;4.60;;
21305;SDS011;10812;51.838;5.838;2023-09-07T00:43:57;6.13;;;5.22;;
21305;SDS011;10812;51.838;5.838;2023-09-07T00:46:26;6.18;;;5.38;;
21305;SDS011;10812;51.838;5.838;2023-09-07T00:48:54;6.75;;;5.05;;
21305;SDS011;10812;51.838;5.838;2023-09-07T00:51:23;6.88;;;5.25;;
21305;SDS011;10812;51.838;5.838;2023-09-07T00:53:51;8.18;;;4.68;;
21305;SDS011;10812;51.838;5.838;2023-09-07T00:56:20;6.60;;;5.30;;
21305;SDS011;10812;51.838;5.838;2023-09-07T00:58:48;6.65;;;4.93;;
21305;SDS011;10812;51.838;5.838;2023-09-07T01:01:18;5.50;;;5.00;;
21305;SDS011;10812;51.838;5.838;2023-09-07T01:03:46;6.00;;;4.78;;
21305;SDS011;10812;51.838;5.838;2023-09-07T01:06:15;6.43;;;4.60;;
21305;SDS011;10812;51.838;5.838;2023-09-07T01:08:49;7.35;;;5.25;;
21305;SDS011;10812;51.838;5.838;2023-09-07T01:11:22;6.28;;;4.63;;
21305;SDS011;10812;51.838;5.838;2023-09-07T01:13:51;4.97;;;4.32;;
21305;SDS011;10812;51.838;5.838;2023-09-07T01:16:22;5.25;;;4.60;;
21305;SDS011;10812;51.838;5.838;2023-09-07T01:18:51;7.82;;;5.07;;
21305;SDS011;10812;51.838;5.838;2023-09-07T01:21:19;6.38;;;4.47;;
21305;SDS011;10812;51.838;5.838;2023-09-07T01:23:50;6.28;;;4.85;;
21305;SDS011;10812;51.838;5.838;2023-09-07T01:26:19;6.13;;;5.15;;
21305;SDS011;10812;51.838;5.838;2023-09-07T01:28:47;5.75;;;4.40;;
21305;SDS011;10812;51.838;5.838;2023-09-07T01:31:16;5.47;;;4.40;;
21305;SDS011;10812;51.838;5.838;2023-09-07T01:33:44;5.10;;;4.60;;
21305;SDS011;10812;51.838;5.838;2023-09-07T01:36:12;6.70;;;5.00;;
21305;SDS011;10812;51.838;5.838;2023-09-07T01:38:40;6.53;;;5.20;;
21305;SDS011;10812;51.838;5.838;2023-09-07T01:41:09;5.53;;;5.00;;
21305;SDS011;10812;51.838;5.838;2023-09-07T01:43:38;6.50;;;4.60;;
21305;SDS011;10812;51.838;5.838;2023-09-07T01:46:06;5.32;;;4.82;;
21305;SDS011;10812;51.838;5.838;2023-09-07T01:48:34;7.55;;;5.30;;
21305;SDS011;10812;51.838;5.838;2023-09-07T01:51:02;5.20;;;4.70;;
21305;SDS011;10812;51.838;5.838;2023-09-07T01:53:31;7.22;;;4.78;;
21305;SDS011;10812;51.838;5.838;2023-09-07T01:55:59;6.45;;;5.20;;
21305;SDS011;10812;51.838;5.838;2023-09-07T01:58:29;6.53;;;5.57;;
21305;SDS011;10812;51.838;5.838;2023-09-07T02:00:57;5.90;;;5.30;;
21305;SDS011;10812;51.838;5.838;2023-09-07T02:03:26;7.00;;;5.03;;
21305;SDS011;10812;51.838;5.838;2023-09-07T02:05:54;5.97;;;5.38;;
21305;SDS011;10812;51.838;5.838;2023-09-07T02:08:22;7.63;;;5.55;;
21305;SDS011;10812;51.838;5.838;2023-09-07T02:10:50;5.93;;;5.32;;
21305;SDS011;10812;51.838;5.838;2023-09-07T02:13:19;7.97;;;5.45;;
21305;SDS011;10812;51.838;5.838;2023-09-07T02:15:48;6.53;;;5.82;;
21305;SDS011;10812;51.838;5.838;2023-09-07T02:18:16;7.05;;;6.28;;
21305;SDS011;10812;51.838;5.838;2023-09-07T02:20:44;8.73;;;6.05;;
21305;SDS011;10812;51.838;5.838;2023-09-07T02:23:12;8.07;;;5.70;;
21305;SDS011;10812;51.838;5.838;2023-09-07T02:25:41;5.18;;;4.68;;
21305;SDS011;10812;51.838;5.838;2023-09-07T02:28:09;5.97;;;5.35;;
21305;SDS011;10812;51.838;5.838;2023-09-07T02:30:37;7.55;;;5.57;;
21305;SDS011;10812;51.838;5.838;2023-09-07T02:33:07;9.13;;;5.25;;
21305;SDS011;10812;51.838;5.838;2023-09-07T02:46:57;6.35;;;5.38;;
21305;SDS011;10812;51.838;5.838;2023-09-07T02:49:27;7.78;;;6.15;;
21305;SDS011;10812;51.838;5.838;2023-09-07T02:51:55;7.20;;;6.50;;
21305;SDS011;10812;51.838;5.838;2023-09-07T02:54:23;6.22;;;5.70;;
21305;SDS011;10812;51.838;5.838;2023-09-07T02:56:51;7.03;;;6.00;;
21305;SDS011;10812;51.838;5.838;2023-09-07T02:59:19;7.85;;;6.57;;
21305;SDS011;10812;51.838;5.838;2023-09-07T03:07:13;7.43;;;6.63;;
21305;SDS011;10812;51.838;5.838;2023-09-07T03:09:41;7.90;;;6.78;;
21305;SDS011;10812;51.838;5.838;2023-09-07T03:12:10;6.90;;;5.90;;
21305;SDS011;10812;51.838;5.838;2023-09-07T03:22:14;9.23;;;7.10;;
21305;SDS011;10812;51.838;5.838;2023-09-07T03:24:42;10.00;;;7.53;;
21305;SDS011;10812;51.838;5.838;2023-09-07T03:27:11;11.82;;;9.05;;
21305;SDS011;10812;51.838;5.838;2023-09-07T03:29:39;11.98;;;9.20;;
21305;SDS011;10812;51.838;5.838;2023-09-07T03:32:07;11.25;;;8.13;;
21305;SDS011;10812;51.838;5.838;2023-09-07T03:34:35;11.60;;;8.70;;
21305;SDS011;10812;51.838;5.838;2023-09-07T03:37:03;11.95;;;9.45;;
21305;SDS011;10812;51.838;5.838;2023-09-07T03:39:34;10.43;;;9.27;;
21305;SDS011;10812;51.838;5.838;2023-09-07T03:42:02;11.32;;;9.23;;
21305;SDS011;10812;51.838;5.838;2023-09-07T03:44:30;12.88;;;8.45;;
21305;SDS011;10812;51.838;5.838;2023-09-07T03:47:00;10.13;;;8.52;;
21305;SDS011;10812;51.838;5.838;2023-09-07T03:49:28;12.45;;;9.60;;
21305;SDS011;10812;51.838;5.838;2023-09-07T03:51:56;10.45;;;9.07;;
21305;SDS011;10812;51.838;5.838;2023-09-07T03:54:24;12.15;;;8.93;;
21305;SDS011;10812;51.838;5.838;2023-09-07T03:56:54;11.55;;;9.20;;
21305;SDS011;10812;51.838;5.838;2023-09-07T03:59:22;10.07;;;8.10;;
21305;SDS011;10812;51.838;5.838;2023-09-07T04:01:50;10.88;;;8.27;;
21305;SDS011;10812;51.838;5.838;2023-09-07T04:04:18;9.70;;;8.57;;
21305;SDS011;10812;51.838;5.838;2023-09-07T04:06:46;12.85;;;8.57;;
21305;SDS011;10812;51.838;5.838;2023-09-07T04:09:15;10.60;;;8.18;;
21305;SDS011;10812;51.838;5.838;2023-09-07T04:11:43;13.60;;;8.52;;
21305;SDS011;10812;51.838;5.838;2023-09-07T04:14:12;8.93;;;8.02;;
21305;SDS011;10812;51.838;5.838;2023-09-07T04:16:40;9.90;;;7.88;;
21305;SDS011;10812;51.838;5.838;2023-09-07T04:19:09;7.82;;;7.03;;
21305;SDS011;10812;51.838;5.838;2023-09-07T04:21:37;9.68;;;7.72;;
21305;SDS011;10812;51.838;5.838;2023-09-07T04:24:06;9.77;;;8.00;;
21305;SDS011;10812;51.838;5.838;2023-09-07T04:26:34;10.63;;;7.10;;
21305;SDS011;10812;51.838;5.838;2023-09-07T04:29:04;8.35;;;7.28;;
21305;SDS011;10812;51.838;5.838;2023-09-07T04:31:35;10.65;;;8.50;;
21305;SDS011;10812;51.838;5.838;2023-09-07T04:34:04;11.32;;;7.53;;
21305;SDS011;10812;51.838;5.838;2023-09-07T04:36:32;8.90;;;7.57;;
21305;SDS011;10812;51.838;5.838;2023-09-07T04:39:00;9.32;;;6.90;;
21305;SDS011;10812;51.838;5.838;2023-09-07T04:41:29;9.90;;;7.38;;
21305;SDS011;10812;51.838;5.838;2023-09-07T04:43:58;7.93;;;7.10;;
21305;SDS011;10812;51.838;5.838;2023-09-07T04:46:26;7.75;;;6.88;;
21305;SDS011;10812;51.838;5.838;2023-09-07T04:48:55;9.05;;;7.25;;
21305;SDS011;10812;51.838;5.838;2023-09-07T04:51:23;7.88;;;7.07;;
21305;SDS011;10812;51.838;5.838;2023-09-07T04:53:52;10.45;;;7.22;;
21305;SDS011;10812;51.838;5.838;2023-09-07T04:56:20;8.43;;;6.93;;
21305;SDS011;10812;51.838;5.838;2023-09-07T04:58:49;9.38;;;7.75;;
21305;SDS011;10812;51.838;5.838;2023-09-07T05:01:17;9.60;;;7.38;;
21305;SDS011;10812;51.838;5.838;2023-09-07T05:03:45;8.95;;;7.78;;
21305;SDS011;10812;51.838;5.838;2023-09-07T05:06:15;9.88;;;7.60;;
21305;SDS011;10812;51.838;5.838;2023-09-07T05:12:30;14.07;;;7.78;;
21305;SDS011;10812;51.838;5.838;2023-09-07T05:14:59;11.57;;;8.15;;
21305;SDS011;10812;51.838;5.838;2023-09-07T05:17:27;12.88;;;7.97;;
21305;SDS011;10812;51.838;5.838;2023-09-07T05:19:55;10.02;;;7.25;;
21305;SDS011;10812;51.838;5.838;2023-09-07T05:22:24;9.55;;;6.65;;
21305;SDS011;10812;51.838;5.838;2023-09-07T05:24:53;11.55;;;8.18;;
21305;SDS011;10812;51.838;5.838;2023-09-07T05:27:21;10.48;;;7.82;;
21305;SDS011;10812;51.838;5.838;2023-09-07T05:29:49;12.70;;;8.52;;
21305;SDS011;10812;51.838;5.838;2023-09-07T05:32:17;9.70;;;7.82;;
21305;SDS011;10812;51.838;5.838;2023-09-07T05:34:45;11.23;;;8.35;;
21305;SDS011;10812;51.838;5.838;2023-09-07T05:37:13;14.13;;;9.45;;
21305;SDS011;10812;51.838;5.838;2023-09-07T05:39:43;10.10;;;8.40;;
21305;SDS011;10812;51.838;5.838;2023-09-07T05:42:11;9.15;;;8.23;;
21305;SDS011;10812;51.838;5.838;2023-09-07T05:44:39;11.55;;;9.60;;
21305;SDS011;10812;51.838;5.838;2023-09-07T05:47:07;10.23;;;8.90;;
21305;SDS011;10812;51.838;5.838;2023-09-07T05:49:36;9.93;;;8.88;;
21305;SDS011;10812;51.838;5.838;2023-09-07T05:52:04;9.93;;;8.48;;
21305;SDS011;10812;51.838;5.838;2023-09-07T05:54:35;11.77;;;8.63;;
21305;SDS011;10812;51.838;5.838;2023-09-07T05:57:05;9.43;;;8.45;;
21305;SDS011;10812;51.838;5.838;2023-09-07T05:59:33;9.73;;;8.60;;
21305;SDS011;10812;51.838;5.838;2023-09-07T06:02:01;9.60;;;8.27;;
21305;SDS011;10812;51.838;5.838;2023-09-07T06:04:30;10.02;;;8.13;;
21305;SDS011;10812;51.838;5.838;2023-09-07T06:06:58;8.15;;;7.40;;
21305;SDS011;10812;51.838;5.838;2023-09-07T06:09:26;8.38;;;7.32;;
21305;SDS011;10812;51.838;5.838;2023-09-07T06:11:55;10.70;;;6.60;;
21305;SDS011;10812;51.838;5.838;2023-09-07T06:14:25;9.20;;;6.93;;
21305;SDS011;10812;51.838;5.838;2023-09-07T06:16:53;7.30;;;5.95;;
21305;SDS011;10812;51.838;5.838;2023-09-07T06:19:21;12.25;;;6.53;;
21305;SDS011;10812;51.838;5.838;2023-09-07T06:21:49;7.65;;;6.22;;
21305;SDS011;10812;51.838;5.838;2023-09-07T06:24:17;7.03;;;6.30;;
21305;SDS011;10812;51.838;5.838;2023-09-07T06:26:46;7.25;;;5.75;;
21305;SDS011;10812;51.838;5.838;2023-09-07T06:29:14;5.95;;;5.43;;
21305;SDS011;10812;51.838;5.838;2023-09-07T06:31:44;7.00;;;5.53;;
21305;SDS011;10812;51.838;5.838;2023-09-07T06:34:12;8.85;;;6.30;;
21305;SDS011;10812;51.838;5.838;2023-09-07T06:36:41;6.07;;;5.32;;
21305;SDS011;10812;51.838;5.838;2023-09-07T06:39:13;7.32;;;6.20;;
21305;SDS011;10812;51.838;5.838;2023-09-07T06:41:43;7.55;;;6.13;;
21305;SDS011;10812;51.838;5.838;2023-09-07T06:44:13;5.80;;;5.20;;
21305;SDS011;10812;51.838;5.838;2023-09-07T06:46:42;5.90;;;5.25;;
21305;SDS011;10812;51.838;5.838;2023-09-07T06:49:12;6.05;;;5.45;;
21305;SDS011;10812;51.838;5.838;2023-09-07T06:51:40;5.88;;;5.38;;
21305;SDS011;10812;51.838;5.838;2023-09-07T06:54:08;7.25;;;5.72;;
21305;SDS011;10812;51.838;5.838;2023-09-07T06:56:36;5.18;;;4.68;;
21305;SDS011;10812;51.838;5.838;2023-09-07T06:59:04;6.10;;;5.47;;
21305;SDS011;10812;51.838;5.838;2023-09-07T07:01:32;6.38;;;5.60;;
21305;SDS011;10812;51.838;5.838;2023-09-07T07:04:03;8.43;;;6.28;;
21305;SDS011;10812;51.838;5.838;2023-09-07T07:06:31;6.65;;;5.95;;
21305;SDS011;10812;51.838;5.838;2023-09-07T07:09:00;7.20;;;5.90;;
21305;SDS011;10812;51.838;5.838;2023-09-07T07:11:28;5.93;;;5.43;;
21305;SDS011;10812;51.838;5.838;2023-09-07T07:13:56;6.75;;;6.13;;
21305;SDS011;10812;51.838;5.838;2023-09-07T07:16:24;6.85;;;5.93;;
21305;SDS011;10812;51.838;5.838;2023-09-07T07:18:52;7.07;;;6.03;;
21305;SDS011;10812;51.838;5.838;2023-09-07T07:21:22;6.35;;;5.72;;
21305;SDS011;10812;51.838;5.838;2023-09-07T07:23:50;6.03;;;5.45;;
21305;SDS011;10812;51.838;5.838;2023-09-07T07:26:19;6.20;;;5.10;;
21305;SDS011;10812;51.838;5.838;2023-09-07T07:28:47;8.38;;;4.95;;
21305;SDS011;10812;51.838;5.838;2023-09-07T07:31:15;6.47;;;5.18;;
21305;SDS011;10812;51.838;5.838;2023-09-07T07:33:43;5.82;;;5.22;;
21305;SDS011;10812;51.838;5.838;2023-09-07T07:36:11;8.60;;;4.80;;
21305;SDS011;10812;51.838;5.838;2023-09-07T07:38:41;5.57;;;5.07;;
21305;SDS011;10812;51.838;5.838;2023-09-07T07:41:09;6.00;;;5.40;;
21305;SDS011;10812;51.838;5.838;2023-09-07T07:43:37;5.72;;;5.15;;
21305;SDS011;10812;51.838;5.838;2023-09-07T07:46:05;6.30;;;5.70;;
21305;SDS011;10812;51.838;5.838;2023-09-07T07:48:35;5.45;;;4.95;;
21305;SDS011;10812;51.838;5.838;2023-09-07T07:51:03;6.32;;;5.65;;
21305;SDS011;10812;51.838;5.838;2023-09-07T07:53:35;6.80;;;5.10;;
21305;SDS011;10812;51.838;5.838;2023-09-07T07:56:04;6.25;;;5.65;;
21305;SDS011;10812;51.838;5.838;2023-09-07T07:58:32;5.95;;;5.35;;
21305;SDS011;10812;51.838;5.838;2023-09-07T08:01:01;5.95;;;5.43;;
21305;SDS011;10812;51.838;5.838;2023-09-07T08:03:29;4.47;;;4.05;;
21305;SDS011;10812;51.838;5.838;2023-09-07T08:05:58;4.38;;;3.25;;
21305;SDS011;10812;51.838;5.838;2023-09-07T08:08:27;3.80;;;3.40;;
21305;SDS011;10812;51.838;5.838;2023-09-07T08:10:55;4.13;;;3.53;;
21305;SDS011;10812;51.838;5.838;2023-09-07T08:13:27;3.45;;;2.75;;
21305;SDS011;10812;51.838;5.838;2023-09-07T08:15:56;3.40;;;3.10;;
21305;SDS011;10812;51.838;5.838;2023-09-07T08:18:24;4.90;;;3.13;;
21305;SDS011;10812;51.838;5.838;2023-09-07T08:20:52;3.35;;;3.05;;
21305;SDS011;10812;51.838;5.838;2023-09-07T08:23:21;3.58;;;2.85;;
21305;SDS011;10812;51.838;5.838;2023-09-07T08:25:50;5.05;;;3.28;;
21305;SDS011;10812;51.838;5.838;2023-09-07T08:28:19;4.43;;;3.05;;
21305;SDS011;10812;51.838;5.838;2023-09-07T08:30:50;4.35;;;3.03;;
21305;SDS011;10812;51.838;5.838;2023-09-07T08:33:20;4.60;;;2.70;;
21305;SDS011;10812;51.838;5.838;2023-09-07T08:35:55;3.40;;;3.08;;
21305;SDS011;10812;51.838;5.838;2023-09-07T08:38:26;6.55;;;2.90;;
21305;SDS011;10812;51.838;5.838;2023-09-07T08:40:55;2.97;;;2.55;;
21305;SDS011;10812;51.838;5.838;2023-09-07T08:43:27;4.10;;;2.83;;
21305;SDS011;10812;51.838;5.838;2023-09-07T08:46:01;3.30;;;3.00;;
21305;SDS011;10812;51.838;5.838;2023-09-07T08:48:35;3.78;;;2.90;;
21305;SDS011;10812;51.838;5.838;2023-09-07T08:51:04;3.58;;;2.90;;
21305;SDS011;10812;51.838;5.838;2023-09-07T08:53:33;4.47;;;2.90;;
21305;SDS011;10812;51.838;5.838;2023-09-07T08:56:04;6.85;;;2.85;;
21305;SDS011;10812;51.838;5.838;2023-09-07T08:58:36;3.20;;;2.70;;
21305;SDS011;10812;51.838;5.838;2023-09-07T09:01:07;3.13;;;2.92;;
21305;SDS011;10812;51.838;5.838;2023-09-07T09:03:36;3.40;;;2.60;;
21305;SDS011;10812;51.838;5.838;2023-09-07T09:06:05;4.50;;;3.10;;
21305;SDS011;10812;51.838;5.838;2023-09-07T09:08:43;3.88;;;2.83;;
21305;SDS011;10812;51.838;5.838;2023-09-07T09:11:12;3.38;;;2.60;;
21305;SDS011;10812;51.838;5.838;2023-09-07T09:13:41;3.60;;;3.20;;
21305;SDS011;10812;51.838;5.838;2023-09-07T09:16:11;3.28;;;2.70;;
21305;SDS011;10812;51.838;5.838;2023-09-07T09:18:47;5.60;;;3.30;;
21305;SDS011;10812;51.838;5.838;2023-09-07T09:21:16;4.63;;;3.05;;
21305;SDS011;10812;51.838;5.838;2023-09-07T09:23:44;3.35;;;3.00;;
21305;SDS011;10812;51.838;5.838;2023-09-07T09:26:14;3.80;;;3.40;;
21305;SDS011;10812;51.838;5.838;2023-09-07T09:28:42;3.90;;;3.30;;
21305;SDS011;10812;51.838;5.838;2023-09-07T09:31:13;4.30;;;3.20;;
21305;SDS011;10812;51.838;5.838;2023-09-07T09:33:42;3.75;;;3.00;;
21305;SDS011;10812;51.838;5.838;2023-09-07T09:36:14;4.30;;;3.08;;
21305;SDS011;10812;51.838;5.838;2023-09-07T09:38:46;4.80;;;3.28;;
21305;SDS011;10812;51.838;5.838;2023-09-07T09:41:16;5.32;;;3.38;;
21305;SDS011;10812;51.838;5.838;2023-09-07T09:43:45;4.15;;;2.80;;
21305;SDS011;10812;51.838;5.838;2023-09-07T09:46:17;2.90;;;2.70;;
21305;SDS011;10812;51.838;5.838;2023-09-07T09:48:45;4.38;;;2.88;;
21305;SDS011;10812;51.838;5.838;2023-09-07T09:51:14;4.13;;;3.28;;
21305;SDS011;10812;51.838;5.838;2023-09-07T09:53:43;4.30;;;3.33;;
21305;SDS011;10812;51.838;5.838;2023-09-07T09:56:11;3.88;;;3.10;;
21305;SDS011;10812;51.838;5.838;2023-09-07T09:58:39;3.78;;;3.47;;
21305;SDS011;10812;51.838;5.838;2023-09-07T10:01:07;5.82;;;3.38;;
21305;SDS011;10812;51.838;5.838;2023-09-07T10:03:42;3.70;;;2.95;;
21305;SDS011;10812;51.838;5.838;2023-09-07T10:06:18;3.58;;;3.28;;
21305;SDS011;10812;51.838;5.838;2023-09-07T10:08:58;3.17;;;2.70;;
21305;SDS011;10812;51.838;5.838;2023-09-07T10:11:27;4.53;;;3.63;;
21305;SDS011;10812;51.838;5.838;2023-09-07T10:13:58;4.50;;;3.33;;
21305;SDS011;10812;51.838;5.838;2023-09-07T10:16:26;3.78;;;3.15;;
21305;SDS011;10812;51.838;5.838;2023-09-07T10:18:56;4.07;;;3.38;;
21305;SDS011;10812;51.838;5.838;2023-09-07T10:21:24;3.67;;;3.35;;
21305;SDS011;10812;51.838;5.838;2023-09-07T10:23:53;4.18;;;3.22;;
21305;SDS011;10812;51.838;5.838;2023-09-07T10:26:21;7.30;;;3.55;;
21305;SDS011;10812;51.838;5.838;2023-09-07T10:28:58;4.82;;;3.38;;
21305;SDS011;10812;51.838;5.838;2023-09-07T10:31:29;4.88;;;3.55;;
21305;SDS011;10812;51.838;5.838;2023-09-07T10:34:18;5.18;;;3.28;;
21305;SDS011;10812;51.838;5.838;2023-09-07T10:36:48;3.95;;;3.40;;
21305;SDS011;10812;51.838;5.838;2023-09-07T10:39:23;3.78;;;3.38;;
21305;SDS011;10812;51.838;5.838;2023-09-07T10:41:50;4.45;;;3.50;;
21305;SDS011;10812;51.838;5.838;2023-09-07T10:44:24;4.75;;;3.13;;
21305;SDS011;10812;51.838;5.838;2023-09-07T10:46:53;4.47;;;3.35;;
21305;SDS011;10812;51.838;5.838;2023-09-07T10:49:23;5.57;;;3.58;;
21305;SDS011;10812;51.838;5.838;2023-09-07T10:51:52;7.18;;;3.55;;
21305;SDS011;10812;51.838;5.838;2023-09-07T10:54:22;3.88;;;3.47;;
21305;SDS011;10812;51.838;5.838;2023-09-07T10:56:51;5.22;;;3.35;;
21305;SDS011;10812;51.838;5.838;2023-09-07T10:59:24;3.83;;;3.00;;
21305;SDS011;10812;51.838;5.838;2023-09-07T11:01:55;4.93;;;3.47;;
21305;SDS011;10812;51.838;5.838;2023-09-07T11:04:33;3.95;;;3.15;;
21305;SDS011;10812;51.838;5.838;2023-09-07T11:07:02;3.10;;;2.80;;
21305;SDS011;10812;51.838;5.838;2023-09-07T11:09:31;3.80;;;3.38;;
21305;SDS011;10812;51.838;5.838;2023-09-07T11:12:03;4.60;;;3.58;;
21305;SDS011;10812;51.838;5.838;2023-09-07T11:14:32;4.72;;;3.20;;
21305;SDS011;10812;51.838;5.838;2023-09-07T11:17:00;4.88;;;3.08;;
21305;SDS011;10812;51.838;5.838;2023-09-07T11:19:32;5.28;;;3.28;;
21305;SDS011;10812;51.838;5.838;2023-09-07T11:22:00;3.05;;;2.63;;
21305;SDS011;10812;51.838;5.838;2023-09-07T11:24:31;3.25;;;2.92;;
21305;SDS011;10812;51.838;5.838;2023-09-07T11:27:00;3.40;;;3.03;;
21305;SDS011;10812;51.838;5.838;2023-09-07T11:29:30;3.25;;;2.92;;
21305;SDS011;10812;51.838;5.838;2023-09-07T11:32:05;5.75;;;3.20;;
21305;SDS011;10812;51.838;5.838;2023-09-07T11:34:35;5.50;;;3.75;;
21305;SDS011;10812;51.838;5.838;2023-09-07T11:37:14;3.97;;;3.05;;
21305;SDS011;10812;51.838;5.838;2023-09-07T11:39:42;4.53;;;3.40;;
21305;SDS011;10812;51.838;5.838;2023-09-07T11:42:10;5.07;;;3.70;;
21305;SDS011;10812;51.838;5.838;2023-09-07T11:44:38;5.63;;;2.90;;
21305;SDS011;10812;51.838;5.838;2023-09-07T11:47:06;5.35;;;3.45;;
21305;SDS011;10812;51.838;5.838;2023-09-07T11:49:36;3.90;;;2.97;;
21305;SDS011;10812;51.838;5.838;2023-09-07T11:52:04;3.60;;;3.30;;
21305;SDS011;10812;51.838;5.838;2023-09-07T11:54:33;4.18;;;3.28;;
21305;SDS011;10812;51.838;5.838;2023-09-07T11:57:02;3.55;;;3.10;;
21305;SDS011;10812;51.838;5.838;2023-09-07T11:59:30;5.40;;;3.47;;
21305;SDS011;10812;51.838;5.838;2023-09-07T12:02:13;5.28;;;3.60;;
21305;SDS011;10812;51.838;5.838;2023-09-07T12:04:45;5.03;;;3.70;;
21305;SDS011;10812;51.838;5.838;2023-09-07T12:07:13;4.38;;;3.22;;
21305;SDS011;10812;51.838;5.838;2023-09-07T12:09:41;3.58;;;2.97;;
21305;SDS011;10812;51.838;5.838;2023-09-07T12:12:10;3.72;;;3.20;;
21305;SDS011;10812;51.838;5.838;2023-09-07T12:14:38;4.82;;;3.17;;
21305;SDS011;10812;51.838;5.838;2023-09-07T12:17:06;4.65;;;3.47;;
21305;SDS011;10812;51.838;5.838;2023-09-07T12:19:34;5.20;;;3.63;;
21305;SDS011;10812;51.838;5.838;2023-09-07T12:22:03;5.68;;;3.85;;
21305;SDS011;10812;51.838;5.838;2023-09-07T12:24:31;6.43;;;3.28;;
21305;SDS011;10812;51.838;5.838;2023-09-07T12:27:01;4.50;;;3.35;;
21305;SDS011;10812;51.838;5.838;2023-09-07T12:29:32;5.05;;;3.67;;
21305;SDS011;10812;51.838;5.838;2023-09-07T12:32:01;5.78;;;4.20;;
21305;SDS011;10812;51.838;5.838;2023-09-07T12:34:29;4.18;;;3.53;;
21305;SDS011;10812;51.838;5.838;2023-09-07T12:36:58;6.65;;;3.72;;
21305;SDS011;10812;51.838;5.838;2023-09-07T12:39:27;4.30;;;3.42;;
21305;SDS011;10812;51.838;5.838;2023-09-07T12:41:55;5.90;;;3.15;;
21305;SDS011;10812;51.838;5.838;2023-09-07T12:44:23;4.45;;;3.42;;
21305;SDS011;10812;51.838;5.838;2023-09-07T12:46:52;5.38;;;3.80;;
21305;SDS011;10812;51.838;5.838;2023-09-07T12:49:20;5.53;;;3.33;;
21305;SDS011;10812;51.838;5.838;2023-09-07T12:51:48;4.18;;;3.35;;
21305;SDS011;10812;51.838;5.838;2023-09-07T12:54:16;4.13;;;3.72;;
21305;SDS011;10812;51.838;5.838;2023-09-07T12:56:46;5.10;;;3.47;;
21305;SDS011;10812;51.838;5.838;2023-09-07T12:59:14;3.60;;;3.30;;
21305;SDS011;10812;51.838;5.838;2023-09-07T13:01:42;5.20;;;3.72;;
21305;SDS011;10812;51.838;5.838;2023-09-07T13:04:10;4.72;;;3.53;;
21305;SDS011;10812;51.838;5.838;2023-09-07T13:06:38;5.35;;;3.80;;
21305;SDS011;10812;51.838;5.838;2023-09-07T13:09:06;5.78;;;3.80;;
21305;SDS011;10812;51.838;5.838;2023-09-07T13:11:36;4.10;;;3.58;;
21305;SDS011;10812;51.838;5.838;2023-09-07T13:14:07;5.20;;;3.88;;
21305;SDS011;10812;51.838;5.838;2023-09-07T13:16:37;5.40;;;4.13;;
21305;SDS011;10812;51.838;5.838;2023-09-07T13:19:05;4.85;;;3.92;;
21305;SDS011;10812;51.838;5.838;2023-09-07T13:21:33;5.38;;;3.90;;
21305;SDS011;10812;51.838;5.838;2023-09-07T13:24:01;4.63;;;3.92;;
21305;SDS011;10812;51.838;5.838;2023-09-07T13:26:30;4.93;;;4.30;;
21305;SDS011;10812;51.838;5.838;2023-09-07T13:28:59;4.72;;;3.78;;
21305;SDS011;10812;51.838;5.838;2023-09-07T13:31:28;5.15;;;4.18;;
21305;SDS011;10812;51.838;5.838;2023-09-07T13:33:56;4.80;;;3.95;;
21305;SDS011;10812;51.838;5.838;2023-09-07T13:36:25;6.25;;;4.22;;
21305;SDS011;10812;51.838;5.838;2023-09-07T13:38:53;5.95;;;3.92;;
21305;SDS011;10812;51.838;5.838;2023-09-07T13:41:23;4.55;;;4.10;;
21305;SDS011;10812;51.838;5.838;2023-09-07T13:43:51;5.53;;;3.40;;
21305;SDS011;10812;51.838;5.838;2023-09-07T13:46:20;4.35;;;3.80;;
21305;SDS011;10812;51.838;5.838;2023-09-07T13:48:51;5.93;;;4.15;;
21305;SDS011;10812;51.838;5.838;2023-09-07T13:51:19;5.25;;;3.95;;
21305;SDS011;10812;51.838;5.838;2023-09-07T13:53:47;6.13;;;4.10;;
21305;SDS011;10812;51.838;5.838;2023-09-07T13:56:16;4.10;;;3.67;;
21305;SDS011;10812;51.838;5.838;2023-09-07T13:58:44;6.07;;;3.90;;
21305;SDS011;10812;51.838;5.838;2023-09-07T14:01:13;5.75;;;4.00;;
21305;SDS011;10812;51.838;5.838;2023-09-07T14:03:41;5.93;;;4.18;;
21305;SDS011;10812;51.838;5.838;2023-09-07T14:06:10;4.35;;;3.92;;
21305;SDS011;10812;51.838;5.838;2023-09-07T14:08:40;5.22;;;4.10;;
21305;SDS011;10812;51.838;5.838;2023-09-07T14:11:09;4.38;;;3.97;;
21305;SDS011;10812;51.838;5.838;2023-09-07T14:13:37;8.15;;;4.22;;
21305;SDS011;10812;51.838;5.838;2023-09-07T14:16:05;4.30;;;3.72;;
21305;SDS011;10812;51.838;5.838;2023-09-07T14:18:36;5.18;;;3.80;;
21305;SDS011;10812;51.838;5.838;2023-09-07T14:21:04;5.80;;;4.10;;
21305;SDS011;10812;51.838;5.838;2023-09-07T14:23:34;4.72;;;3.40;;
21305;SDS011;10812;51.838;5.838;2023-09-07T14:26:03;5.22;;;3.67;;
21305;SDS011;10812;51.838;5.838;2023-09-07T14:28:31;7.93;;;5.45;;
21305;SDS011;10812;51.838;5.838;2023-09-07T14:31:00;4.97;;;4.15;;
21305;SDS011;10812;51.838;5.838;2023-09-07T14:33:30;5.32;;;3.83;;
21305;SDS011;10812;51.838;5.838;2023-09-07T14:35:58;6.05;;;4.07;;
21305;SDS011;10812;51.838;5.838;2023-09-07T14:38:27;4.88;;;3.97;;
21305;SDS011;10812;51.838;5.838;2023-09-07T14:40:57;4.20;;;3.80;;
21305;SDS011;10812;51.838;5.838;2023-09-07T14:43:27;5.72;;;4.05;;
21305;SDS011;10812;51.838;5.838;2023-09-07T14:45:55;6.82;;;4.20;;
21305;SDS011;10812;51.838;5.838;2023-09-07T14:48:23;7.43;;;3.95;;
21305;SDS011;10812;51.838;5.838;2023-09-07T14:50:52;4.88;;;3.67;;
21305;SDS011;10812;51.838;5.838;2023-09-07T14:57:09;4.50;;;3.92;;
21305;SDS011;10812;51.838;5.838;2023-09-07T14:59:38;6.05;;;3.53;;
21305;SDS011;10812;51.838;5.838;2023-09-07T15:02:06;4.65;;;4.00;;
21305;SDS011;10812;51.838;5.838;2023-09-07T15:04:34;4.55;;;3.95;;
21305;SDS011;10812;51.838;5.838;2023-09-07T15:07:03;5.75;;;3.67;;
21305;SDS011;10812;51.838;5.838;2023-09-07T15:09:31;6.38;;;4.18;;
21305;SDS011;10812;51.838;5.838;2023-09-07T15:11:59;4.13;;;3.45;;
21305;SDS011;10812;51.838;5.838;2023-09-07T15:14:28;9.05;;;4.35;;
21305;SDS011;10812;51.838;5.838;2023-09-07T15:16:56;5.93;;;3.80;;
21305;SDS011;10812;51.838;5.838;2023-09-07T15:19:25;5.72;;;4.32;;
21305;SDS011;10812;51.838;5.838;2023-09-07T15:21:53;5.53;;;3.92;;
21305;SDS011;10812;51.838;5.838;2023-09-07T15:24:21;4.72;;;4.22;;
21305;SDS011;10812;51.838;5.838;2023-09-07T15:26:49;4.45;;;3.70;;
21305;SDS011;10812;51.838;5.838;2023-09-07T15:29:17;5.43;;;4.13;;